Time;durP1;ratioP1;P1;durP2;ratioP2;P2;SDS_P1;SDS_P2;PMS_P1;PMS_P2;Temp;Humidity;BMP_temperature;BMP_pressure;BME280_temperature;BME280_humidity;BME280_pressure;Samples;Min_cycle;Max_cycle;Signal;HPM_P1;HPM_P2
2023/10/25 00:01:23;;;;;;;11.60;9.27;;;10.00;99.90;;;;;;4992829;28;20594;-50
2023/10/25 00:03:49;;;;;;;12.30;10.63;;;9.90;99.90;;;;;;4993002;28;20058;-50
2023/10/25 00:06:14;;;;;;;14.40;9.68;;;9.90;99.90;;;;;;4993500;28;20022;-48
2023/10/25 00:08:40;;;;;;;13.15;10.65;;;9.90;99.90;;;;;;4992985;28;20109;-53
2023/10/25 00:11:07;;;;;;;11.57;10.15;;;9.90;99.90;;;;;;4992972;28;20545;-48
2023/10/25 00:13:33;;;;;;;12.57;10.73;;;9.90;99.90;;;;;;4990876;28;20476;-47
2023/10/25 00:15:59;;;;;;;14.70;10.90;;;9.90;99.90;;;;;;4981801;28;20121;-49
2023/10/25 00:18:24;;;;;;;14.93;10.70;;;9.90;99.90;;;;;;4992783;28;20027;-49
2023/10/25 00:20:51;;;;;;;13.13;11.73;;;10.00;99.90;;;;;;4993037;28;20401;-48
2023/10/25 00:23:18;;;;;;;14.68;12.27;;;10.00;99.90;;;;;;4992635;28;20019;-49
2023/10/25 00:25:44;;;;;;;14.38;12.43;;;10.00;99.90;;;;;;4992789;28;20505;-47
2023/10/25 00:28:09;;;;;;;12.73;11.38;;;10.10;99.90;;;;;;4992780;28;20034;-47
2023/10/25 00:30:35;;;;;;;30.08;12.68;;;10.10;99.90;;;;;;4991151;28;20070;-49
2023/10/25 00:33:00;;;;;;;33.42;13.15;;;10.10;99.90;;;;;;4981610;28;20091;-50
2023/10/25 00:35:26;;;;;;;42.85;14.05;;;10.10;99.90;;;;;;4992476;28;20036;-49
2023/10/25 00:37:51;;;;;;;16.60;11.50;;;10.10;99.90;;;;;;4992528;28;20031;-50
2023/10/25 00:40:17;;;;;;;74.78;14.15;;;10.00;99.90;;;;;;4992711;28;20426;-52
2023/10/25 00:42:42;;;;;;;122.30;16.02;;;10.00;99.90;;;;;;4992554;28;20034;-47
2023/10/25 00:45:08;;;;;;;45.05;13.60;;;10.10;99.90;;;;;;4991171;28;20041;-48
2023/10/25 00:47:34;;;;;;;37.83;14.30;;;10.00;99.90;;;;;;4990334;28;20124;-48
2023/10/25 00:49:59;;;;;;;75.30;14.07;;;10.00;99.90;;;;;;4983560;28;20035;-48
2023/10/25 00:52:25;;;;;;;40.70;14.10;;;10.00;99.90;;;;;;4973153;28;20027;-52
2023/10/25 00:54:51;;;;;;;52.55;14.23;;;10.00;99.90;;;;;;4971926;28;20485;-48
2023/10/25 00:57:17;;;;;;;46.13;14.90;;;10.00;99.90;;;;;;4991938;28;20030;-46
2023/10/25 00:59:42;;;;;;;71.82;14.57;;;10.00;99.90;;;;;;4992798;28;20026;-50
2023/10/25 01:02:08;;;;;;;60.97;14.80;;;10.00;99.90;;;;;;4992488;28;20034;-54
2023/10/25 01:04:34;;;;;;;93.93;15.68;;;10.00;99.90;;;;;;4990748;28;20027;-51
2023/10/25 01:07:00;;;;;;;29.02;14.45;;;10.00;99.90;;;;;;4980083;28;20383;-53
2023/10/25 01:09:27;;;;;;;22.77;13.57;;;10.00;99.90;;;;;;4991692;28;20042;-52
2023/10/25 01:11:52;;;;;;;58.15;16.15;;;10.00;99.90;;;;;;4990817;28;20117;-53
2023/10/25 01:14:18;;;;;;;45.03;16.45;;;10.00;99.90;;;;;;4991853;28;20109;-50
2023/10/25 01:16:43;;;;;;;40.80;14.95;;;10.00;99.90;;;;;;4977563;28;20023;-47
2023/10/25 01:19:09;;;;;;;33.45;16.48;;;10.10;99.90;;;;;;4972332;28;20046;-48
2023/10/25 01:21:34;;;;;;;40.97;14.13;;;10.00;99.90;;;;;;4973643;28;20031;-48
2023/10/25 01:24:00;;;;;;;88.10;16.23;;;10.10;99.90;;;;;;4983170;28;20026;-52
2023/10/25 01:26:25;;;;;;;110.25;17.02;;;10.20;99.90;;;;;;4973938;28;20027;-48
2023/10/25 01:28:51;;;;;;;85.07;16.23;;;10.20;99.90;;;;;;4975055;28;20476;-50
2023/10/25 01:31:16;;;;;;;31.08;17.27;;;10.20;99.90;;;;;;4976571;28;20035;-50
2023/10/25 01:33:43;;;;;;;46.15;16.13;;;10.20;99.90;;;;;;4975092;28;20026;-50
2023/10/25 01:36:09;;;;;;;71.32;16.70;;;10.10;99.90;;;;;;4976301;28;20150;-50
2023/10/25 01:38:34;;;;;;;29.42;16.58;;;10.10;99.90;;;;;;4976941;28;20043;-48
2023/10/25 01:41:00;;;;;;;42.67;15.38;;;10.10;99.90;;;;;;4987348;28;20031;-48
2023/10/25 01:43:25;;;;;;;36.42;16.23;;;10.00;99.90;;;;;;4976280;28;20495;-52
2023/10/25 01:45:51;;;;;;;53.17;16.08;;;10.00;99.90;;;;;;4976453;28;20471;-52
2023/10/25 01:48:16;;;;;;;27.50;15.40;;;10.00;99.90;;;;;;4976139;28;20487;-52
2023/10/25 01:50:42;;;;;;;17.60;13.93;;;10.00;99.90;;;;;;4976376;28;20039;-50
2023/10/25 01:53:07;;;;;;;18.42;13.98;;;10.00;99.90;;;;;;4975993;28;20031;-55
2023/10/25 01:55:33;;;;;;;24.77;14.93;;;10.00;99.90;;;;;;4975860;28;20037;-48
2023/10/25 01:57:58;;;;;;;47.42;15.82;;;10.10;99.90;;;;;;4983403;28;20030;-52
2023/10/25 02:00:24;;;;;;;23.17;15.02;;;10.10;99.90;;;;;;4995534;28;20019;-48
2023/10/25 02:02:49;;;;;;;23.38;14.95;;;10.10;99.90;;;;;;4993215;28;20030;-49
2023/10/25 02:05:15;;;;;;;33.55;14.68;;;10.10;99.90;;;;;;4975822;28;20407;-49
2023/10/25 02:07:40;;;;;;;18.75;14.25;;;10.10;99.90;;;;;;4975694;28;20062;-51
2023/10/25 02:10:06;;;;;;;17.17;12.95;;;10.00;99.90;;;;;;4992449;28;20109;-50
2023/10/25 02:12:32;;;;;;;18.80;13.68;;;10.00;99.90;;;;;;4995351;28;20320;-51
2023/10/25 02:14:57;;;;;;;15.10;12.70;;;10.00;99.90;;;;;;4981040;28;20061;-48
2023/10/25 02:17:23;;;;;;;15.25;12.23;;;9.90;99.90;;;;;;4995176;28;20089;-51
2023/10/25 02:19:48;;;;;;;16.25;13.52;;;9.90;99.90;;;;;;4995168;28;20062;-52
2023/10/25 02:22:14;;;;;;;14.23;11.63;;;9.80;99.90;;;;;;4994930;28;20552;-48
2023/10/25 02:24:39;;;;;;;16.80;12.05;;;9.90;99.90;;;;;;4993733;28;20069;-48
2023/10/25 02:27:05;;;;;;;12.95;10.95;;;9.90;99.90;;;;;;4995009;28;20493;-51
2023/10/25 02:29:31;;;;;;;18.45;12.45;;;9.90;99.90;;;;;;4994761;28;20041;-48
2023/10/25 02:31:57;;;;;;;19.20;11.90;;;9.90;99.90;;;;;;4988761;28;20034;-50
2023/10/25 02:34:22;;;;;;;18.52;11.20;;;9.90;99.90;;;;;;4975133;28;20035;-48
2023/10/25 02:36:48;;;;;;;27.30;11.90;;;9.90;99.90;;;;;;4983850;28;20032;-48
2023/10/25 02:39:13;;;;;;;19.33;11.65;;;9.80;99.90;;;;;;4994544;28;20058;-48
2023/10/25 02:41:39;;;;;;;15.48;11.00;;;9.80;99.90;;;;;;4994723;28;20494;-48
2023/10/25 02:44:05;;;;;;;17.00;10.18;;;9.70;99.90;;;;;;4994530;28;20410;-50
2023/10/25 02:46:30;;;;;;;11.18;9.98;;;9.70;99.90;;;;;;4994628;28;20113;-49
2023/10/25 02:48:56;;;;;;;17.48;11.70;;;9.70;99.90;;;;;;4981725;28;20035;-47
2023/10/25 02:51:21;;;;;;;14.52;11.32;;;9.70;99.90;;;;;;4994425;28;20498;-48
2023/10/25 02:53:47;;;;;;;25.63;12.00;;;9.70;99.90;;;;;;4994230;28;20030;-48
2023/10/25 02:56:12;;;;;;;16.38;12.38;;;9.80;99.90;;;;;;4994292;28;20383;-51
2023/10/25 02:58:38;;;;;;;39.40;13.30;;;9.80;99.90;;;;;;4994203;28;20034;-51
2023/10/25 03:01:04;;;;;;;73.32;12.80;;;9.70;99.90;;;;;;4994413;28;20461;-48
2023/10/25 03:03:31;;;;;;;77.00;13.45;;;9.60;99.90;;;;;;4993924;28;20489;-48
2023/10/25 03:05:57;;;;;;;25.00;12.15;;;9.60;99.90;;;;;;4981275;28;20035;-48
2023/10/25 03:08:22;;;;;;;124.30;13.15;;;9.50;99.90;;;;;;4994159;28;20552;-52
2023/10/25 03:10:48;;;;;;;107.25;13.63;;;9.40;99.90;;;;;;4994339;28;20026;-51
2023/10/25 03:13:14;;;;;;;117.75;14.65;;;9.50;99.90;;;;;;4994087;28;20026;-49
2023/10/25 03:15:39;;;;;;;79.10;13.88;;;9.50;99.90;;;;;;4993899;28;20057;-49
2023/10/25 03:18:05;;;;;;;127.57;15.68;;;9.40;99.90;;;;;;4993780;28;20031;-51
2023/10/25 03:20:31;;;;;;;194.65;15.57;;;9.40;99.90;;;;;;4993932;28;20026;-49
2023/10/25 03:22:57;;;;;;;151.43;16.60;;;9.40;99.90;;;;;;4989263;28;20514;-49
2023/10/25 03:25:23;;;;;;;153.50;18.15;;;9.40;99.90;;;;;;4974453;28;20023;-48
2023/10/25 03:27:48;;;;;;;90.15;14.45;;;9.40;99.90;;;;;;4974227;28;20027;-49
2023/10/25 03:30:14;;;;;;;105.78;15.40;;;9.40;99.90;;;;;;4974349;28;20034;-52
2023/10/25 03:32:39;;;;;;;74.28;15.30;;;9.30;99.90;;;;;;4988120;28;20033;-50
2023/10/25 03:35:06;;;;;;;18.67;13.57;;;9.30;99.90;;;;;;4977904;28;20494;-47
2023/10/25 03:37:32;;;;;;;47.42;15.05;;;9.40;99.90;;;;;;4974113;28;20039;-51
2023/10/25 03:39:57;;;;;;;48.08;14.80;;;9.40;99.90;;;;;;4985886;28;20030;-47
2023/10/25 03:42:23;;;;;;;38.40;16.08;;;9.50;99.90;;;;;;4974141;28;20026;-48
2023/10/25 03:44:48;;;;;;;34.20;16.15;;;9.60;99.90;;;;;;4973982;28;20502;-53
2023/10/25 03:47:14;;;;;;;61.97;16.20;;;9.60;99.90;;;;;;4974387;28;20022;-50
2023/10/25 03:49:39;;;;;;;36.47;17.20;;;9.60;99.90;;;;;;4973199;28;20034;-47
2023/10/25 03:52:05;;;;;;;44.00;17.55;;;9.60;99.90;;;;;;4974396;28;20038;-50
2023/10/25 03:54:31;;;;;;;38.72;18.17;;;9.70;99.90;;;;;;5002375;23;20038;-46
2023/10/25 03:56:56;;;;;;;126.10;20.13;;;9.70;99.90;;;;;;5030865;28;20501;-49
2023/10/25 03:59:22;;;;;;;52.83;20.45;;;9.70;99.90;;;;;;5032158;28;20061;-46
2023/10/25 04:01:48;;;;;;;34.83;19.30;;;9.70;99.90;;;;;;5033895;28;20075;-45
2023/10/25 04:04:13;;;;;;;69.35;20.25;;;9.60;99.90;;;;;;5032874;28;20018;-43
2023/10/25 04:06:39;;;;;;;64.65;19.92;;;9.60;99.90;;;;;;5032648;28;20370;-46
2023/10/25 04:09:04;;;;;;;38.03;18.70;;;9.60;99.90;;;;;;5032272;28;20056;-45
2023/10/25 04:11:30;;;;;;;39.38;20.17;;;9.60;99.90;;;;;;5032496;28;20079;-45
2023/10/25 04:13:55;;;;;;;42.45;19.00;;;9.60;99.90;;;;;;5027566;28;20029;-49
2023/10/25 04:16:21;;;;;;;84.60;19.20;;;9.60;99.90;;;;;;5014112;28;20026;-47
2023/10/25 04:18:46;;;;;;;58.85;20.35;;;9.60;99.90;;;;;;5012584;28;20022;-46
2023/10/25 04:21:12;;;;;;;31.63;17.73;;;9.60;99.90;;;;;;5012873;28;20033;-44
2023/10/25 04:23:38;;;;;;;65.93;19.77;;;9.60;99.90;;;;;;5012444;28;20030;-45
2023/10/25 04:26:11;;;;;;;85.53;20.42;;;9.60;99.90;;;;;;5029542;28;20040;-44
2023/10/25 04:28:38;;;;;;;34.92;17.73;;;9.60;99.90;;;;;;5032055;28;20399;-43
2023/10/25 04:31:03;;;;;;;68.32;18.02;;;9.60;99.90;;;;;;5020854;28;20038;-46
2023/10/25 04:33:30;;;;;;;86.38;18.60;;;9.60;99.90;;;;;;5029436;28;20029;-44
2023/10/25 04:35:56;;;;;;;39.80;19.05;;;9.60;99.90;;;;;;5031977;28;20104;-45
2023/10/25 04:38:23;;;;;;;47.33;16.55;;;9.60;99.90;;;;;;5031870;28;20512;-47
2023/10/25 04:40:50;;;;;;;32.30;17.30;;;9.60;99.90;;;;;;5032195;28;20520;-44
2023/10/25 04:43:15;;;;;;;32.42;18.30;;;9.60;99.90;;;;;;5032020;28;20397;-44
2023/10/25 04:45:41;;;;;;;100.38;18.65;;;9.70;99.90;;;;;;5032158;28;20026;-47
2023/10/25 04:48:06;;;;;;;25.98;17.75;;;9.70;99.90;;;;;;5026991;28;20021;-48
2023/10/25 04:50:36;;;;;;;77.10;18.98;;;9.70;99.90;;;;;;5013573;28;20417;-49
2023/10/25 04:53:02;;;;;;;44.40;18.42;;;9.80;99.90;;;;;;5011872;28;20053;-47
2023/10/25 04:55:29;;;;;;;67.32;18.42;;;9.80;99.90;;;;;;5011661;28;20132;-46
2023/10/25 04:57:56;;;;;;;26.77;17.98;;;9.90;99.90;;;;;;5011643;28;20504;-48
2023/10/25 05:00:22;;;;;;;43.85;18.42;;;9.90;99.90;;;;;;5011699;28;20018;-46
2023/10/25 05:02:47;;;;;;;49.92;19.65;;;9.90;99.90;;;;;;5011910;28;20609;-46
2023/10/25 05:05:13;;;;;;;51.83;18.88;;;10.00;99.90;;;;;;5022106;28;20489;-50
2023/10/25 05:07:39;;;;;;;35.85;17.83;;;10.00;99.90;;;;;;5012757;28;20038;-46
2023/10/25 05:10:09;;;;;;;42.97;18.17;;;10.00;99.90;;;;;;5011880;28;20112;-44
2023/10/25 05:12:38;;;;;;;57.85;19.02;;;10.10;99.90;;;;;;5010409;28;20481;-44
2023/10/25 05:15:05;;;;;;;35.00;19.60;;;10.10;99.90;;;;;;5019999;28;20103;-48
2023/10/25 05:17:31;;;;;;;63.13;19.02;;;10.10;99.90;;;;;;5031134;28;20026;-48
2023/10/25 05:19:56;;;;;;;26.83;17.23;;;10.10;99.90;;;;;;5031325;28;20076;-45
2023/10/25 05:22:26;;;;;;;108.80;20.10;;;10.10;99.90;;;;;;5018064;28;20034;-47
2023/10/25 05:24:52;;;;;;;32.35;16.15;;;10.00;99.90;;;;;;5030779;28;20017;-52
2023/10/25 05:27:18;;;;;;;41.20;19.70;;;10.00;99.90;;;;;;5030909;28;20037;-47
2023/10/25 05:29:43;;;;;;;44.72;19.75;;;10.00;99.90;;;;;;5031246;28;20400;-46
2023/10/25 05:32:12;;;;;;;42.03;19.92;;;10.00;99.90;;;;;;5031165;28;20026;-48
2023/10/25 05:34:38;;;;;;;43.47;18.85;;;10.00;99.90;;;;;;5031054;28;20128;-47
2023/10/25 05:37:04;;;;;;;35.35;19.17;;;10.00;99.90;;;;;;5029776;28;20128;-51
2023/10/25 05:39:30;;;;;;;28.55;17.75;;;10.10;99.90;;;;;;5026421;28;20018;-46
2023/10/25 05:42:01;;;;;;;28.45;18.58;;;10.10;99.90;;;;;;5011861;28;20037;-46
2023/10/25 05:44:27;;;;;;;26.77;18.70;;;10.10;99.90;;;;;;5011361;28;20470;-47
2023/10/25 05:46:52;;;;;;;27.50;18.67;;;10.20;99.90;;;;;;5010985;28;20037;-47
2023/10/25 05:49:18;;;;;;;24.75;17.50;;;10.20;99.90;;;;;;5011241;28;20033;-46
2023/10/25 05:51:44;;;;;;;35.85;20.88;;;10.20;99.90;;;;;;5011418;28;20057;-47
2023/10/25 05:54:10;;;;;;;33.88;20.02;;;10.30;99.90;;;;;;5023500;28;20025;-45
2023/10/25 05:56:36;;;;;;;35.80;19.33;;;10.30;99.90;;;;;;5018534;28;20080;-50
2023/10/25 05:59:02;;;;;;;40.30;21.05;;;10.30;99.90;;;;;;5029115;28;20034;-48
2023/10/25 06:01:47;;;;;;;48.63;22.02;;;10.40;99.90;;;;;;5030863;28;20098;-45
2023/10/25 06:04:14;;;;;;;34.42;20.73;;;10.40;99.90;;;;;;5030844;28;20063;-47
2023/10/25 06:06:43;;;;;;;67.90;20.35;;;10.40;99.90;;;;;;5030725;28;20033;-50
2023/10/25 06:09:10;;;;;;;76.72;21.05;;;10.40;99.90;;;;;;5031130;28;20064;-48
2023/10/25 06:11:36;;;;;;;48.42;19.70;;;10.40;99.90;;;;;;5030879;28;20021;-48
2023/10/25 06:14:02;;;;;;;60.10;19.92;;;10.40;99.90;;;;;;5021964;28;20388;-45
2023/10/25 06:16:28;;;;;;;93.32;18.85;;;10.30;99.90;;;;;;5033968;28;20033;-45
2023/10/25 06:18:53;;;;;;;65.60;18.60;;;10.30;99.90;;;;;;5026639;28;20394;-50
2023/10/25 06:21:19;;;;;;;72.90;16.67;;;10.20;99.90;;;;;;5014851;28;20482;-47
2023/10/25 06:23:44;;;;;;;54.55;16.42;;;10.10;99.90;;;;;;5024765;28;20037;-46
2023/10/25 06:26:10;;;;;;;44.42;16.20;;;10.10;99.90;;;;;;5034004;28;20424;-48
2023/10/25 06:28:35;;;;;;;26.10;16.40;;;10.10;99.90;;;;;;5016528;28;20077;-50
2023/10/25 06:31:01;;;;;;;26.13;14.95;;;10.00;99.90;;;;;;5026535;28;20029;-47
2023/10/25 06:33:27;;;;;;;22.92;15.68;;;9.90;99.90;;;;;;5014680;28;20029;-45
2023/10/25 06:35:53;;;;;;;22.08;15.93;;;9.90;99.90;;;;;;5014429;28;20034;-49
2023/10/25 06:38:19;;;;;;;21.33;15.00;;;9.90;99.90;;;;;;5014310;28;20393;-46
2023/10/25 06:40:44;;;;;;;25.67;14.65;;;9.90;99.90;;;;;;5014394;28;20030;-48
2023/10/25 06:43:10;;;;;;;21.95;15.23;;;9.80;99.90;;;;;;5014424;28;20461;-52
2023/10/25 06:45:36;;;;;;;26.90;15.63;;;9.80;99.90;;;;;;5024366;28;20053;-50
2023/10/25 06:48:02;;;;;;;19.00;13.98;;;9.90;99.90;;;;;;5015444;28;20030;-45
2023/10/25 06:50:28;;;;;;;21.75;14.25;;;9.80;99.90;;;;;;5024507;28;20068;-48
2023/10/25 06:52:54;;;;;;;22.42;14.38;;;9.80;99.90;;;;;;5014312;28;20049;-45
2023/10/25 06:55:20;;;;;;;24.10;14.55;;;9.80;99.90;;;;;;5013985;28;20120;-47
2023/10/25 06:57:48;;;;;;;24.77;16.75;;;9.90;99.90;;;;;;5012595;28;20448;-46
2023/10/25 07:00:14;;;;;;;23.45;15.43;;;9.90;99.90;;;;;;5014249;28;20493;-46
2023/10/25 07:02:45;;;;;;;22.55;14.55;;;9.90;99.90;;;;;;5013915;28;20096;-49
2023/10/25 07:05:13;;;;;;;21.30;14.45;;;10.00;99.90;;;;;;5013804;28;20033;-50
2023/10/25 07:07:40;;;;;;;23.95;15.80;;;10.10;99.90;;;;;;5013592;28;20037;-50
2023/10/25 07:10:08;;;;;;;20.92;15.52;;;10.10;99.90;;;;;;5013746;28;20033;-50
2023/10/25 07:12:34;;;;;;;26.55;16.10;;;10.10;99.90;;;;;;5013707;28;20064;-46
2023/10/25 07:14:59;;;;;;;25.30;16.17;;;10.10;99.90;;;;;;5013541;28;20072;-51
2023/10/25 07:17:27;;;;;;;25.52;17.92;;;10.10;99.90;;;;;;5013424;28;20029;-46
2023/10/25 07:19:53;;;;;;;26.10;15.57;;;10.10;99.90;;;;;;5013717;28;20037;-46
2023/10/25 07:22:19;;;;;;;24.27;14.88;;;10.10;99.90;;;;;;5013292;28;20406;-46
2023/10/25 07:24:44;;;;;;;22.88;15.93;;;10.10;99.90;;;;;;5013247;28;20060;-45
2023/10/25 07:27:10;;;;;;;19.88;14.27;;;10.20;99.90;;;;;;5013411;28;20125;-53
2023/10/25 07:29:38;;;;;;;17.23;11.40;;;10.20;99.90;;;;;;5011762;28;20034;-50
2023/10/25 07:32:04;;;;;;;16.55;11.63;;;10.30;99.90;;;;;;5013303;28;20104;-52
2023/10/25 07:34:30;;;;;;;16.65;10.45;;;10.30;99.90;;;;;;5013020;28;20550;-49
2023/10/25 07:36:55;;;;;;;17.80;9.52;;;10.30;99.90;;;;;;5013286;28;20088;-45
2023/10/25 07:39:21;;;;;;;16.83;8.63;;;10.30;99.90;;;;;;5013147;28;20030;-46
2023/10/25 07:41:47;;;;;;;13.18;8.93;;;10.30;99.90;;;;;;5013308;28;20030;-45
2023/10/25 07:44:12;;;;;;;12.55;9.15;;;10.30;99.90;;;;;;5013225;28;20059;-46
2023/10/25 07:46:38;;;;;;;11.98;8.57;;;10.30;99.90;;;;;;5013478;28;20113;-50
2023/10/25 07:49:03;;;;;;;12.00;8.60;;;10.30;99.90;;;;;;5013184;28;20452;-50
2023/10/25 07:51:29;;;;;;;9.70;8.32;;;10.40;99.90;;;;;;5013237;28;20033;-49
2023/10/25 07:53:55;;;;;;;9.75;6.93;;;10.30;99.90;;;;;;5013090;28;20034;-54
2023/10/25 07:56:20;;;;;;;8.82;5.32;;;10.40;99.90;;;;;;5012514;28;20128;-52
2023/10/25 07:58:46;;;;;;;9.55;6.35;;;10.40;99.90;;;;;;5013113;28;20022;-45
2023/10/25 08:01:14;;;;;;;8.30;5.75;;;10.30;99.90;;;;;;5013169;28;20022;-46
2023/10/25 08:03:40;;;;;;;10.18;6.15;;;10.40;99.90;;;;;;5011751;28;20018;-46
2023/10/25 08:06:05;;;;;;;9.75;6.30;;;10.50;99.90;;;;;;5011497;28;20018;-50
2023/10/25 08:08:32;;;;;;;8.40;6.03;;;10.50;99.90;;;;;;5012900;28;20057;-49
2023/10/25 08:11:01;;;;;;;10.63;6.28;;;10.60;99.90;;;;;;5012852;28;20030;-52
2023/10/25 08:13:27;;;;;;;10.88;6.22;;;10.60;99.90;;;;;;5012749;28;20037;-51
2023/10/25 08:15:56;;;;;;;9.60;6.30;;;10.70;99.90;;;;;;5012665;28;20026;-47
2023/10/25 08:18:22;;;;;;;12.68;8.13;;;10.70;99.90;;;;;;5012512;28;20397;-50
2023/10/25 08:20:48;;;;;;;7.72;6.03;;;10.70;99.90;;;;;;5012745;28;20029;-51
2023/10/25 08:23:13;;;;;;;8.63;6.05;;;10.70;99.90;;;;;;5012609;28;20054;-49
2023/10/25 08:25:39;;;;;;;7.35;5.35;;;10.80;99.90;;;;;;5012454;28;20022;-51
2023/10/25 08:28:04;;;;;;;9.82;6.10;;;10.80;99.90;;;;;;5012424;28;20076;-54
2023/10/25 08:30:30;;;;;;;8.73;5.30;;;10.90;99.90;;;;;;5012555;28;20053;-50
2023/10/25 08:32:55;;;;;;;11.20;5.97;;;10.90;99.90;;;;;;5012590;28;20032;-52
2023/10/25 08:35:21;;;;;;;9.48;6.97;;;11.00;99.90;;;;;;5011944;28;20057;-51
2023/10/25 08:37:46;;;;;;;9.05;6.65;;;11.00;99.90;;;;;;5010826;28;20377;-51
2023/10/25 08:40:14;;;;;;;10.25;6.93;;;11.10;99.90;;;;;;5012265;28;20109;-51
2023/10/25 08:42:40;;;;;;;13.88;7.50;;;11.10;99.90;;;;;;5012526;28;20482;-47
2023/10/25 08:45:06;;;;;;;12.98;7.05;;;11.20;99.90;;;;;;5012194;28;20141;-52
2023/10/25 08:47:32;;;;;;;9.63;6.40;;;11.30;99.90;;;;;;5012363;28;20497;-45
2023/10/25 08:49:58;;;;;;;12.43;7.50;;;11.30;99.90;;;;;;5012145;28;20049;-47
2023/10/25 08:52:27;;;;;;;8.43;7.43;;;11.30;99.90;;;;;;5012076;28;20045;-53
2023/10/25 08:54:52;;;;;;;11.07;7.03;;;11.30;99.90;;;;;;5011570;28;20037;-52
2023/10/25 08:57:18;;;;;;;10.20;7.45;;;11.20;99.90;;;;;;5010733;28;20033;-51
2023/10/25 08:59:46;;;;;;;9.45;7.15;;;11.30;99.90;;;;;;5012132;28;20026;-51
2023/10/25 09:02:12;;;;;;;12.20;7.47;;;11.30;99.90;;;;;;5012214;28;20458;-48
2023/10/25 09:04:56;;;;;;;10.07;7.13;;;11.40;99.90;;;;;;5011948;28;20033;-50
2023/10/25 09:07:29;;;;;;;13.00;7.75;;;11.60;99.90;;;;;;5011729;28;20061;-50
2023/10/25 09:09:54;;;;;;;9.13;6.55;;;11.80;99.90;;;;;;5012052;28;20021;-51
2023/10/25 09:12:21;;;;;;;9.20;7.75;;;11.70;99.90;;;;;;5012040;28;20406;-51
2023/10/25 09:14:47;;;;;;;11.55;8.20;;;11.80;99.90;;;;;;5011746;28;20060;-49
2023/10/25 09:17:13;;;;;;;8.60;7.25;;;11.80;99.90;;;;;;5011773;28;20029;-51
2023/10/25 09:19:51;;;;;;;8.85;7.28;;;11.80;99.90;;;;;;5011529;28;20022;-49
2023/10/25 09:22:26;;;;;;;10.80;6.93;;;11.80;99.90;;;;;;5011834;28;20026;-49
2023/10/25 09:24:54;;;;;;;8.20;7.18;;;11.80;99.90;;;;;;5011632;28;20022;-52
2023/10/25 09:27:20;;;;;;;11.65;8.10;;;11.90;99.90;;;;;;5011661;28;20268;-44
2023/10/25 09:29:46;;;;;;;10.60;7.47;;;11.90;99.90;;;;;;5011658;28;20125;-54
2023/10/25 09:32:12;;;;;;;10.75;7.55;;;12.00;99.90;;;;;;5011841;28;20106;-46
2023/10/25 09:34:38;;;;;;;12.48;8.65;;;12.00;99.90;;;;;;5011648;28;20033;-49
2023/10/25 09:37:04;;;;;;;14.32;8.07;;;12.00;99.90;;;;;;5011697;28;20522;-50
2023/10/25 09:39:32;;;;;;;11.63;7.30;;;11.90;99.90;;;;;;5011517;28;20026;-48
2023/10/25 09:42:01;;;;;;;9.38;7.50;;;11.90;99.90;;;;;;5012004;28;20100;-47
2023/10/25 09:44:31;;;;;;;9.45;8.45;;;11.90;99.90;;;;;;5011407;28;20497;-46
2023/10/25 09:46:58;;;;;;;9.27;7.78;;;12.00;99.90;;;;;;5012635;28;20037;-55
2023/10/25 09:49:29;;;;;;;9.82;7.28;;;11.90;99.90;;;;;;5015699;28;20413;-46
2023/10/25 09:52:06;;;;;;;10.30;7.38;;;11.90;99.90;;;;;;5015722;28;20080;-47
2023/10/25 09:54:33;;;;;;;10.02;7.82;;;11.90;99.90;;;;;;5014979;28;20030;-50
2023/10/25 09:57:02;;;;;;;13.48;8.65;;;11.90;99.90;;;;;;5024305;28;20036;-49
2023/10/25 09:59:30;;;;;;;11.25;8.07;;;11.90;99.90;;;;;;5035053;28;20488;-50
2023/10/25 10:01:56;;;;;;;9.30;7.43;;;11.90;99.90;;;;;;5034391;28;20025;-53
2023/10/25 10:04:57;;;;;;;9.23;7.78;;;11.80;99.90;;;;;;5032261;28;20029;-51
2023/10/25 10:07:32;;;;;;;9.02;8.05;;;11.90;99.90;;;;;;5034699;28;20152;-50
2023/10/25 10:10:28;;;;;;;10.82;8.32;;;11.90;99.90;;;;;;5034972;28;20026;-51
2023/10/25 10:12:54;;;;;;;13.93;7.53;;;11.80;99.90;;;;;;5034670;28;20080;-49
2023/10/25 10:15:44;;;;;;;11.73;8.40;;;11.90;99.90;;;;;;5033434;28;20029;-50
2023/10/25 10:18:11;;;;;;;31.95;24.73;;;11.80;99.90;;;;;;5034478;28;20033;-47
2023/10/25 10:20:36;;;;;;;44.97;29.52;;;11.90;99.90;;;;;;5034603;28;20093;-50
2023/10/25 10:23:06;;;;;;;25.33;17.02;;;11.80;99.90;;;;;;5034662;28;20163;-49
2023/10/25 10:25:50;;;;;;;20.23;14.27;;;11.90;99.90;;;;;;5034744;28;20485;-50
2023/10/25 10:28:35;;;;;;;10.65;8.57;;;11.90;99.90;;;;;;5034638;28;20029;-50
2023/10/25 10:31:00;;;;;;;12.43;9.52;;;11.90;99.90;;;;;;5033380;28;20029;-51
2023/10/25 10:33:26;;;;;;;13.10;8.75;;;11.90;99.90;;;;;;5034320;28;20080;-50
2023/10/25 10:35:51;;;;;;;11.77;8.77;;;11.90;99.90;;;;;;5034120;28;20041;-50
2023/10/25 10:38:17;;;;;;;9.25;8.13;;;11.90;99.90;;;;;;5034068;28;20025;-51
2023/10/25 10:40:48;;;;;;;13.52;9.27;;;12.00;99.90;;;;;;5034514;28;20026;-50
2023/10/25 10:43:13;;;;;;;13.75;10.10;;;12.00;99.90;;;;;;5034498;28;20108;-50
2023/10/25 10:45:42;;;;;;;18.50;9.05;;;12.00;99.90;;;;;;5033975;28;20099;-52
2023/10/25 10:48:32;;;;;;;11.35;9.73;;;12.00;99.90;;;;;;5033972;28;20045;-48
2023/10/25 10:50:57;;;;;;;16.73;9.90;;;12.00;99.90;;;;;;5034009;28;20018;-51
2023/10/25 10:53:23;;;;;;;20.48;9.05;;;12.00;99.90;;;;;;5033679;28;20500;-53
2023/10/25 10:55:49;;;;;;;10.77;8.90;;;12.10;99.90;;;;;;5033969;28;20555;-50
2023/10/25 10:58:14;;;;;;;15.70;9.20;;;12.10;99.90;;;;;;5033583;28;20532;-50
2023/10/25 11:00:44;;;;;;;9.60;7.97;;;12.10;99.90;;;;;;5034068;28;20032;-50
2023/10/25 11:03:10;;;;;;;11.90;8.52;;;12.10;99.90;;;;;;5019745;28;20101;-50
2023/10/25 11:05:37;;;;;;;10.68;8.15;;;12.20;99.90;;;;;;5012659;28;20049;-50
2023/10/25 11:08:02;;;;;;;6.97;6.25;;;12.20;99.90;;;;;;5028560;28;20025;-50
2023/10/25 11:10:28;;;;;;;9.23;6.40;;;12.10;99.90;;;;;;5033945;28;20025;-51
2023/10/25 11:12:58;;;;;;;8.38;5.60;;;12.20;99.90;;;;;;5030902;28;20489;-46
2023/10/25 11:15:25;;;;;;;9.40;6.63;;;12.20;99.90;;;;;;5017236;28;20025;-51
2023/10/25 11:17:51;;;;;;;6.80;6.10;;;12.20;99.90;;;;;;5014722;28;20103;-49
2023/10/25 11:20:16;;;;;;;17.30;13.60;;;12.20;99.90;;;;;;5028487;28;20089;-46
2023/10/25 11:22:42;;;;;;;7.68;6.40;;;12.20;99.90;;;;;;5013799;28;20105;-53
2023/10/25 11:25:11;;;;;;;10.13;7.32;;;12.20;99.90;;;;;;5028875;28;20139;-47
2023/10/25 11:27:37;;;;;;;9.27;6.78;;;12.20;99.90;;;;;;5030495;28;20128;-50
2023/10/25 11:30:05;;;;;;;8.95;6.47;;;12.20;99.90;;;;;;5030439;28;20124;-50
2023/10/25 11:32:31;;;;;;;9.23;5.20;;;12.20;99.90;;;;;;5033279;28;20073;-54
2023/10/25 11:34:58;;;;;;;6.32;4.03;;;12.20;99.90;;;;;;5032726;28;20052;-49
2023/10/25 11:37:27;;;;;;;5.57;3.88;;;12.20;99.90;;;;;;5033364;28;20029;-50
2023/10/25 11:40:01;;;;;;;5.53;3.85;;;12.20;99.90;;;;;;5033344;28;20404;-48
2023/10/25 11:42:31;;;;;;;3.23;3.03;;;12.20;99.90;;;;;;5033461;28;20032;-52
2023/10/25 11:44:59;;;;;;;4.80;3.03;;;12.20;99.90;;;;;;5019929;28;20049;-51
2023/10/25 11:47:26;;;;;;;4.72;3.05;;;12.20;99.90;;;;;;5031087;28;20393;-45
2023/10/25 11:50:01;;;;;;;4.80;3.03;;;12.20;99.90;;;;;;5031770;28;20075;-49
2023/10/25 11:52:28;;;;;;;7.75;3.85;;;12.20;99.90;;;;;;5032928;28;20509;-49
2023/10/25 11:54:55;;;;;;;4.95;2.85;;;12.20;99.90;;;;;;5032563;28;20045;-52
2023/10/25 11:57:26;;;;;;;8.30;3.17;;;12.20;99.90;;;;;;5031250;28;20461;-48
2023/10/25 11:59:52;;;;;;;2.80;2.50;;;12.30;99.90;;;;;;5022851;28;20030;-50
2023/10/25 12:02:24;;;;;;;3.10;2.70;;;12.30;99.90;;;;;;5019743;28;20022;-52
2023/10/25 12:04:49;;;;;;;4.47;2.30;;;12.20;99.90;;;;;;5023620;28;20072;-46
2023/10/25 12:07:15;;;;;;;4.75;2.72;;;12.30;99.90;;;;;;5032556;28;20061;-48
2023/10/25 12:09:42;;;;;;;2.78;2.00;;;12.20;99.90;;;;;;5030563;28;20528;-50
2023/10/25 12:12:09;;;;;;;2.33;1.95;;;12.30;99.90;;;;;;5032559;28;20021;-50
2023/10/25 12:14:35;;;;;;;3.22;2.03;;;12.20;99.90;;;;;;5030803;28;20399;-47
2023/10/25 12:17:00;;;;;;;2.30;2.05;;;12.20;99.90;;;;;;5023344;28;20056;-50
2023/10/25 12:19:26;;;;;;;2.50;2.17;;;12.20;99.90;;;;;;5028804;28;20108;-53
2023/10/25 12:21:54;;;;;;;7.63;1.73;;;12.30;99.90;;;;;;5045661;28;20037;-50
2023/10/25 12:24:21;;;;;;;3.83;1.90;;;12.40;99.90;;;;;;5032014;28;20018;-49
2023/10/25 12:26:47;;;;;;;4.38;2.10;;;12.30;99.90;;;;;;5032045;28;20104;-49
2023/10/25 12:29:12;;;;;;;4.82;2.13;;;12.40;99.90;;;;;;5031765;28;20566;-47
2023/10/25 12:31:38;;;;;;;7.30;3.22;;;12.40;99.90;;;;;;5032233;28;20436;-51
2023/10/25 12:34:03;;;;;;;2.28;2.08;;;12.40;99.90;;;;;;5028663;28;20087;-46